sensor_id;sensor_type;location;lat;lon;timestamp;temperature;humidity
8824;DHT22;4448;50.904;4.694;2023-05-14T00:01:24;16.20;99.90
8824;DHT22;4448;50.904;4.694;2023-05-14T00:03:50;16.20;99.90
8824;DHT22;4448;50.904;4.694;2023-05-14T00:06:16;16.10;99.90
8824;DHT22;4448;50.904;4.694;2023-05-14T00:08:41;16.10;99.90
8824;DHT22;4448;50.904;4.694;2023-05-14T00:11:07;16.10;99.90
8824;DHT22;4448;50.904;4.694;2023-05-14T00:13:34;16.10;99.90
8824;DHT22;4448;50.904;4.694;2023-05-14T00:16:00;16.10;99.90
8824;DHT22;4448;50.904;4.694;2023-05-14T00:18:25;16.10;99.90
8824;DHT22;4448;50.904;4.694;2023-05-14T00:20:51;16.10;99.90
8824;DHT22;4448;50.904;4.694;2023-05-14T00:23:20;16.10;99.90
8824;DHT22;4448;50.904;4.694;2023-05-14T00:25:46;16.10;99.90
8824;DHT22;4448;50.904;4.694;2023-05-14T00:28:11;16.10;99.90
8824;DHT22;4448;50.904;4.694;2023-05-14T00:30:37;16.10;99.90
8824;DHT22;4448;50.904;4.694;2023-05-14T00:33:04;16.00;99.90
8824;DHT22;4448;50.904;4.694;2023-05-14T00:35:30;16.00;99.90
8824;DHT22;4448;50.904;4.694;2023-05-14T00:37:55;16.00;99.90
8824;DHT22;4448;50.904;4.694;2023-05-14T00:40:24;16.00;99.90
8824;DHT22;4448;50.904;4.694;2023-05-14T00:42:51;16.00;99.90
8824;DHT22;4448;50.904;4.694;2023-05-14T00:45:16;16.00;99.90
8824;DHT22;4448;50.904;4.694;2023-05-14T00:47:42;16.00;99.90
8824;DHT22;4448;50.904;4.694;2023-05-14T00:50:09;16.00;99.90
8824;DHT22;4448;50.904;4.694;2023-05-14T00:52:39;16.00;99.90
8824;DHT22;4448;50.904;4.694;2023-05-14T00:55:05;16.00;99.90
8824;DHT22;4448;50.904;4.694;2023-05-14T00:57:34;15.90;99.90
8824;DHT22;4448;50.904;4.694;2023-05-14T01:00:01;15.90;99.90
8824;DHT22;4448;50.904;4.694;2023-05-14T01:02:27;15.90;99.90
8824;DHT22;4448;50.904;4.694;2023-05-14T01:04:53;15.90;99.90
8824;DHT22;4448;50.904;4.694;2023-05-14T01:10:00;15.90;99.90
8824;DHT22;4448;50.904;4.694;2023-05-14T01:12:53;15.80;99.90
8824;DHT22;4448;50.904;4.694;2023-05-14T01:15:24;15.80;99.90
8824;DHT22;4448;50.904;4.694;2023-05-14T01:17:58;15.80;99.90
8824;DHT22;4448;50.904;4.694;2023-05-14T01:20:25;15.80;99.90
8824;DHT22;4448;50.904;4.694;2023-05-14T01:22:51;15.70;99.90
8824;DHT22;4448;50.904;4.694;2023-05-14T01:25:17;15.70;99.90
8824;DHT22;4448;50.904;4.694;2023-05-14T01:28:19;15.70;99.90
8824;DHT22;4448;50.904;4.694;2023-05-14T01:30:55;15.70;99.90
8824;DHT22;4448;50.904;4.694;2023-05-14T01:33:25;15.70;99.90
8824;DHT22;4448;50.904;4.694;2023-05-14T01:35:53;15.60;99.90
8824;DHT22;4448;50.904;4.694;2023-05-14T01:38:19;15.60;99.90
8824;DHT22;4448;50.904;4.694;2023-05-14T01:40:46;15.60;99.90
8824;DHT22;4448;50.904;4.694;2023-05-14T01:43:13;15.60;99.90
8824;DHT22;4448;50.904;4.694;2023-05-14T01:45:40;15.60;99.90
8824;DHT22;4448;50.904;4.694;2023-05-14T01:48:06;15.50;99.90
8824;DHT22;4448;50.904;4.694;2023-05-14T01:50:32;15.50;99.90
8824;DHT22;4448;50.904;4.694;2023-05-14T01:52:58;15.50;99.90
8824;DHT22;4448;50.904;4.694;2023-05-14T01:55:24;15.50;99.90
8824;DHT22;4448;50.904;4.694;2023-05-14T01:57:50;15.50;99.90
8824;DHT22;4448;50.904;4.694;2023-05-14T02:00:16;15.40;99.90
8824;DHT22;4448;50.904;4.694;2023-05-14T02:02:42;15.40;99.90
8824;DHT22;4448;50.904;4.694;2023-05-14T02:05:09;15.40;99.90
8824;DHT22;4448;50.904;4.694;2023-05-14T02:07:35;15.40;99.90
8824;DHT22;4448;50.904;4.694;2023-05-14T02:10:01;15.40;99.90
8824;DHT22;4448;50.904;4.694;2023-05-14T02:12:27;15.40;99.90
8824;DHT22;4448;50.904;4.694;2023-05-14T02:14:52;15.40;99.90
8824;DHT22;4448;50.904;4.694;2023-05-14T02:17:19;15.40;99.90
8824;DHT22;4448;50.904;4.694;2023-05-14T02:19:44;15.40;99.90
8824;DHT22;4448;50.904;4.694;2023-05-14T02:22:11;15.40;99.90
8824;DHT22;4448;50.904;4.694;2023-05-14T02:24:36;15.30;99.90
8824;DHT22;4448;50.904;4.694;2023-05-14T02:27:02;15.30;99.90
8824;DHT22;4448;50.904;4.694;2023-05-14T02:29:28;15.30;99.90
8824;DHT22;4448;50.904;4.694;2023-05-14T02:31:54;15.30;99.90
8824;DHT22;4448;50.904;4.694;2023-05-14T02:34:20;15.30;99.90
8824;DHT22;4448;50.904;4.694;2023-05-14T02:36:45;15.30;99.90
8824;DHT22;4448;50.904;4.694;2023-05-14T02:39:11;15.30;99.90
8824;DHT22;4448;50.904;4.694;2023-05-14T02:41:38;15.30;99.90
8824;DHT22;4448;50.904;4.694;2023-05-14T02:44:03;15.30;99.90
8824;DHT22;4448;50.904;4.694;2023-05-14T02:46:30;15.30;99.90
8824;DHT22;4448;50.904;4.694;2023-05-14T02:48:56;15.30;99.90
8824;DHT22;4448;50.904;4.694;2023-05-14T02:51:22;15.30;99.90
8824;DHT22;4448;50.904;4.694;2023-05-14T02:53:48;15.20;99.90
8824;DHT22;4448;50.904;4.694;2023-05-14T02:56:14;15.20;99.90
8824;DHT22;4448;50.904;4.694;2023-05-14T02:58:42;15.20;99.90
8824;DHT22;4448;50.904;4.694;2023-05-14T03:01:07;15.20;99.90
8824;DHT22;4448;50.904;4.694;2023-05-14T03:03:33;15.20;99.90
8824;DHT22;4448;50.904;4.694;2023-05-14T03:05:59;15.20;99.90
8824;DHT22;4448;50.904;4.694;2023-05-14T03:08:25;15.20;99.90
8824;DHT22;4448;50.904;4.694;2023-05-14T03:10:50;15.20;99.90
8824;DHT22;4448;50.904;4.694;2023-05-14T03:13:16;15.20;99.90
8824;DHT22;4448;50.904;4.694;2023-05-14T03:15:43;15.20;99.90
8824;DHT22;4448;50.904;4.694;2023-05-14T03:18:09;15.20;99.90
8824;DHT22;4448;50.904;4.694;2023-05-14T03:20:34;15.20;99.90
8824;DHT22;4448;50.904;4.694;2023-05-14T03:23:00;15.20;99.90
8824;DHT22;4448;50.904;4.694;2023-05-14T03:25:26;15.10;99.90
8824;DHT22;4448;50.904;4.694;2023-05-14T03:27:51;15.10;99.90
8824;DHT22;4448;50.904;4.694;2023-05-14T03:30:17;15.10;99.90
8824;DHT22;4448;50.904;4.694;2023-05-14T03:32:43;15.10;99.90
8824;DHT22;4448;50.904;4.694;2023-05-14T03:35:09;15.10;99.90
8824;DHT22;4448;50.904;4.694;2023-05-14T03:37:35;15.10;99.90
8824;DHT22;4448;50.904;4.694;2023-05-14T03:40:01;15.10;99.90
8824;DHT22;4448;50.904;4.694;2023-05-14T03:42:26;15.10;99.90
8824;DHT22;4448;50.904;4.694;2023-05-14T03:44:52;15.10;99.90
8824;DHT22;4448;50.904;4.694;2023-05-14T03:47:17;15.10;99.90
8824;DHT22;4448;50.904;4.694;2023-05-14T03:49:43;15.10;99.90
8824;DHT22;4448;50.904;4.694;2023-05-14T03:52:09;15.10;99.90
8824;DHT22;4448;50.904;4.694;2023-05-14T03:54:35;15.10;99.90
8824;DHT22;4448;50.904;4.694;2023-05-14T03:57:00;15.10;99.90
8824;DHT22;4448;50.904;4.694;2023-05-14T03:59:26;15.10;99.90
8824;DHT22;4448;50.904;4.694;2023-05-14T04:01:52;15.00;99.90
8824;DHT22;4448;50.904;4.694;2023-05-14T04:04:17;15.10;99.90
8824;DHT22;4448;50.904;4.694;2023-05-14T04:06:43;15.00;99.90
8824;DHT22;4448;50.904;4.694;2023-05-14T04:09:09;15.00;99.90
8824;DHT22;4448;50.904;4.694;2023-05-14T04:11:35;15.10;99.90
8824;DHT22;4448;50.904;4.694;2023-05-14T04:14:01;15.10;99.90
8824;DHT22;4448;50.904;4.694;2023-05-14T04:16:27;15.10;99.90
8824;DHT22;4448;50.904;4.694;2023-05-14T04:18:52;15.10;99.90
8824;DHT22;4448;50.904;4.694;2023-05-14T04:21:18;15.10;99.90
8824;DHT22;4448;50.904;4.694;2023-05-14T04:23:44;15.10;99.90
8824;DHT22;4448;50.904;4.694;2023-05-14T04:26:10;15.10;99.90
8824;DHT22;4448;50.904;4.694;2023-05-14T04:28:35;15.10;99.90
8824;DHT22;4448;50.904;4.694;2023-05-14T04:31:01;15.00;99.90
8824;DHT22;4448;50.904;4.694;2023-05-14T04:33:26;15.00;99.90
8824;DHT22;4448;50.904;4.694;2023-05-14T04:35:52;15.00;99.90
8824;DHT22;4448;50.904;4.694;2023-05-14T04:38:18;15.00;99.90
8824;DHT22;4448;50.904;4.694;2023-05-14T04:40:43;15.00;99.90
8824;DHT22;4448;50.904;4.694;2023-05-14T04:43:09;15.00;99.90
8824;DHT22;4448;50.904;4.694;2023-05-14T04:45:35;15.00;99.90
8824;DHT22;4448;50.904;4.694;2023-05-14T04:48:02;15.00;99.90
8824;DHT22;4448;50.904;4.694;2023-05-14T04:50:28;15.00;99.90
8824;DHT22;4448;50.904;4.694;2023-05-14T04:52:54;15.00;99.90
8824;DHT22;4448;50.904;4.694;2023-05-14T04:55:20;15.00;99.90
8824;DHT22;4448;50.904;4.694;2023-05-14T04:57:46;15.00;99.90
8824;DHT22;4448;50.904;4.694;2023-05-14T05:00:12;15.00;99.90
8824;DHT22;4448;50.904;4.694;2023-05-14T05:02:38;15.00;99.90
8824;DHT22;4448;50.904;4.694;2023-05-14T05:05:04;15.00;99.90
8824;DHT22;4448;50.904;4.694;2023-05-14T05:07:29;15.00;99.90
8824;DHT22;4448;50.904;4.694;2023-05-14T05:09:55;15.10;99.90
8824;DHT22;4448;50.904;4.694;2023-05-14T05:12:21;15.10;99.90
8824;DHT22;4448;50.904;4.694;2023-05-14T05:14:47;15.10;99.90
8824;DHT22;4448;50.904;4.694;2023-05-14T05:17:13;15.10;99.90
8824;DHT22;4448;50.904;4.694;2023-05-14T05:19:39;15.10;99.90
8824;DHT22;4448;50.904;4.694;2023-05-14T05:22:04;15.10;99.90
8824;DHT22;4448;50.904;4.694;2023-05-14T05:24:30;15.10;99.90
8824;DHT22;4448;50.904;4.694;2023-05-14T05:26:56;15.10;99.90
8824;DHT22;4448;50.904;4.694;2023-05-14T05:29:22;15.10;99.90
8824;DHT22;4448;50.904;4.694;2023-05-14T05:31:48;15.20;99.90
8824;DHT22;4448;50.904;4.694;2023-05-14T05:34:13;15.20;99.90
8824;DHT22;4448;50.904;4.694;2023-05-14T05:36:40;15.20;99.90
8824;DHT22;4448;50.904;4.694;2023-05-14T05:39:05;15.20;99.90
8824;DHT22;4448;50.904;4.694;2023-05-14T05:41:31;15.20;99.90
8824;DHT22;4448;50.904;4.694;2023-05-14T05:43:57;15.20;99.90
8824;DHT22;4448;50.904;4.694;2023-05-14T05:46:22;15.20;99.90
8824;DHT22;4448;50.904;4.694;2023-05-14T05:48:48;15.20;99.90
8824;DHT22;4448;50.904;4.694;2023-05-14T05:51:14;15.30;99.90
8824;DHT22;4448;50.904;4.694;2023-05-14T05:53:40;15.30;99.90
8824;DHT22;4448;50.904;4.694;2023-05-14T05:56:05;15.30;99.90
8824;DHT22;4448;50.904;4.694;2023-05-14T05:58:32;15.40;99.90
8824;DHT22;4448;50.904;4.694;2023-05-14T06:00:58;15.30;99.90
8824;DHT22;4448;50.904;4.694;2023-05-14T06:03:24;15.40;99.90
8824;DHT22;4448;50.904;4.694;2023-05-14T06:05:50;15.40;99.90
8824;DHT22;4448;50.904;4.694;2023-05-14T06:08:17;15.40;99.90
8824;DHT22;4448;50.904;4.694;2023-05-14T06:10:43;15.40;99.90
8824;DHT22;4448;50.904;4.694;2023-05-14T06:13:08;15.40;99.90
8824;DHT22;4448;50.904;4.694;2023-05-14T06:15:34;15.40;99.90
8824;DHT22;4448;50.904;4.694;2023-05-14T06:18:00;15.50;99.90
8824;DHT22;4448;50.904;4.694;2023-05-14T06:20:25;15.50;99.90
8824;DHT22;4448;50.904;4.694;2023-05-14T06:22:51;15.40;99.90
8824;DHT22;4448;50.904;4.694;2023-05-14T06:25:17;15.50;99.90
8824;DHT22;4448;50.904;4.694;2023-05-14T06:27:43;15.50;99.90
8824;DHT22;4448;50.904;4.694;2023-05-14T06:30:09;15.50;99.90
8824;DHT22;4448;50.904;4.694;2023-05-14T06:32:36;15.50;99.90
8824;DHT22;4448;50.904;4.694;2023-05-14T06:35:01;15.60;99.90
8824;DHT22;4448;50.904;4.694;2023-05-14T06:37:27;15.60;99.90
8824;DHT22;4448;50.904;4.694;2023-05-14T06:39:53;15.60;99.90
8824;DHT22;4448;50.904;4.694;2023-05-14T06:42:19;15.60;99.90
8824;DHT22;4448;50.904;4.694;2023-05-14T06:44:44;15.60;99.90
8824;DHT22;4448;50.904;4.694;2023-05-14T06:47:10;15.70;99.90
8824;DHT22;4448;50.904;4.694;2023-05-14T06:49:36;15.70;99.90
8824;DHT22;4448;50.904;4.694;2023-05-14T06:52:02;15.70;99.90
8824;DHT22;4448;50.904;4.694;2023-05-14T06:54:28;15.60;99.90
8824;DHT22;4448;50.904;4.694;2023-05-14T06:56:54;15.70;99.90
8824;DHT22;4448;50.904;4.694;2023-05-14T06:59:19;15.60;99.90
8824;DHT22;4448;50.904;4.694;2023-05-14T07:01:45;15.60;99.90
8824;DHT22;4448;50.904;4.694;2023-05-14T07:04:11;15.60;99.90
8824;DHT22;4448;50.904;4.694;2023-05-14T07:06:36;15.60;99.90
8824;DHT22;4448;50.904;4.694;2023-05-14T07:09:02;15.60;99.90
8824;DHT22;4448;50.904;4.694;2023-05-14T07:11:28;15.60;99.90
8824;DHT22;4448;50.904;4.694;2023-05-14T07:13:54;15.60;99.90
8824;DHT22;4448;50.904;4.694;2023-05-14T07:16:20;15.60;99.90
8824;DHT22;4448;50.904;4.694;2023-05-14T07:18:45;15.60;99.90
8824;DHT22;4448;50.904;4.694;2023-05-14T07:21:11;15.60;99.90
8824;DHT22;4448;50.904;4.694;2023-05-14T07:23:37;15.70;99.90
8824;DHT22;4448;50.904;4.694;2023-05-14T07:26:06;15.70;99.90
8824;DHT22;4448;50.904;4.694;2023-05-14T07:28:32;15.70;99.90
8824;DHT22;4448;50.904;4.694;2023-05-14T07:30:58;15.80;99.90
8824;DHT22;4448;50.904;4.694;2023-05-14T07:33:24;15.80;99.90
8824;DHT22;4448;50.904;4.694;2023-05-14T07:35:50;15.80;99.90
8824;DHT22;4448;50.904;4.694;2023-05-14T07:38:17;15.80;99.90
8824;DHT22;4448;50.904;4.694;2023-05-14T07:40:43;15.90;99.90
8824;DHT22;4448;50.904;4.694;2023-05-14T07:43:09;15.90;99.90
8824;DHT22;4448;50.904;4.694;2023-05-14T07:45:38;15.90;99.90
8824;DHT22;4448;50.904;4.694;2023-05-14T07:48:04;16.00;99.90
8824;DHT22;4448;50.904;4.694;2023-05-14T07:50:30;16.00;99.90
8824;DHT22;4448;50.904;4.694;2023-05-14T07:52:56;16.00;99.90
8824;DHT22;4448;50.904;4.694;2023-05-14T07:55:22;16.00;99.90
8824;DHT22;4448;50.904;4.694;2023-05-14T07:57:47;16.10;99.90
8824;DHT22;4448;50.904;4.694;2023-05-14T08:00:13;16.10;99.90
8824;DHT22;4448;50.904;4.694;2023-05-14T08:02:40;16.20;99.90
8824;DHT22;4448;50.904;4.694;2023-05-14T08:05:07;16.20;99.90
8824;DHT22;4448;50.904;4.694;2023-05-14T08:07:33;16.30;99.90
8824;DHT22;4448;50.904;4.694;2023-05-14T08:09:59;16.30;99.90
8824;DHT22;4448;50.904;4.694;2023-05-14T08:12:25;16.30;99.90
8824;DHT22;4448;50.904;4.694;2023-05-14T08:14:51;16.40;99.90
8824;DHT22;4448;50.904;4.694;2023-05-14T08:17:17;16.40;99.90
8824;DHT22;4448;50.904;4.694;2023-05-14T08:19:43;16.40;99.90
8824;DHT22;4448;50.904;4.694;2023-05-14T08:22:08;16.40;99.90
8824;DHT22;4448;50.904;4.694;2023-05-14T08:24:34;16.40;99.90
8824;DHT22;4448;50.904;4.694;2023-05-14T08:27:00;16.50;99.90
8824;DHT22;4448;50.904;4.694;2023-05-14T08:29:26;16.50;99.90
8824;DHT22;4448;50.904;4.694;2023-05-14T08:31:52;16.60;99.90
8824;DHT22;4448;50.904;4.694;2023-05-14T08:34:21;16.60;99.90
8824;DHT22;4448;50.904;4.694;2023-05-14T08:36:46;16.70;99.90
8824;DHT22;4448;50.904;4.694;2023-05-14T08:39:12;16.70;99.90
8824;DHT22;4448;50.904;4.694;2023-05-14T08:41:39;16.80;99.90
8824;DHT22;4448;50.904;4.694;2023-05-14T08:46:40;16.90;99.90
8824;DHT22;4448;50.904;4.694;2023-05-14T08:51:53;17.00;99.90
8824;DHT22;4448;50.904;4.694;2023-05-14T08:54:20;17.10;99.90
8824;DHT22;4448;50.904;4.694;2023-05-14T08:56:48;17.10;99.90
8824;DHT22;4448;50.904;4.694;2023-05-14T08:59:15;17.10;99.90
8824;DHT22;4448;50.904;4.694;2023-05-14T09:01:51;17.20;99.90
8824;DHT22;4448;50.904;4.694;2023-05-14T09:04:21;17.20;99.90
8824;DHT22;4448;50.904;4.694;2023-05-14T09:06:51;17.30;99.90
8824;DHT22;4448;50.904;4.694;2023-05-14T09:09:21;17.40;99.90
8824;DHT22;4448;50.904;4.694;2023-05-14T09:11:51;17.40;99.90
8824;DHT22;4448;50.904;4.694;2023-05-14T09:14:18;17.50;99.90
8824;DHT22;4448;50.904;4.694;2023-05-14T09:16:45;17.50;99.90
8824;DHT22;4448;50.904;4.694;2023-05-14T09:19:11;17.60;99.90
8824;DHT22;4448;50.904;4.694;2023-05-14T09:21:38;17.70;99.90
8824;DHT22;4448;50.904;4.694;2023-05-14T09:24:05;17.80;99.90
8824;DHT22;4448;50.904;4.694;2023-05-14T09:26:33;17.80;99.90
8824;DHT22;4448;50.904;4.694;2023-05-14T09:29:00;17.90;99.90
8824;DHT22;4448;50.904;4.694;2023-05-14T09:31:30;18.00;99.90
8824;DHT22;4448;50.904;4.694;2023-05-14T09:33:57;18.00;99.90
8824;DHT22;4448;50.904;4.694;2023-05-14T09:36:23;18.00;99.90
8824;DHT22;4448;50.904;4.694;2023-05-14T09:39:02;18.10;99.90
8824;DHT22;4448;50.904;4.694;2023-05-14T09:41:28;18.10;99.90
8824;DHT22;4448;50.904;4.694;2023-05-14T09:43:54;18.20;99.90
8824;DHT22;4448;50.904;4.694;2023-05-14T09:46:21;18.20;99.90
8824;DHT22;4448;50.904;4.694;2023-05-14T09:48:48;18.30;99.90
8824;DHT22;4448;50.904;4.694;2023-05-14T09:51:15;18.30;99.90
8824;DHT22;4448;50.904;4.694;2023-05-14T09:53:43;18.40;99.90
8824;DHT22;4448;50.904;4.694;2023-05-14T09:56:09;18.50;99.90
8824;DHT22;4448;50.904;4.694;2023-05-14T09:58:34;18.50;99.90
8824;DHT22;4448;50.904;4.694;2023-05-14T10:01:00;18.60;99.90
8824;DHT22;4448;50.904;4.694;2023-05-14T10:03:28;18.70;99.90
8824;DHT22;4448;50.904;4.694;2023-05-14T10:06:02;18.80;99.90
8824;DHT22;4448;50.904;4.694;2023-05-14T10:08:35;18.80;99.90
8824;DHT22;4448;50.904;4.694;2023-05-14T10:11:19;18.90;99.90
8824;DHT22;4448;50.904;4.694;2023-05-14T10:14:02;19.10;99.90
8824;DHT22;4448;50.904;4.694;2023-05-14T10:16:33;19.20;99.90
8824;DHT22;4448;50.904;4.694;2023-05-14T10:19:09;19.30;99.90
8824;DHT22;4448;50.904;4.694;2023-05-14T10:21:37;19.40;99.90
8824;DHT22;4448;50.904;4.694;2023-05-14T10:24:04;19.50;99.90
8824;DHT22;4448;50.904;4.694;2023-05-14T10:26:31;19.60;99.90
8824;DHT22;4448;50.904;4.694;2023-05-14T10:28:58;19.70;99.90
8824;DHT22;4448;50.904;4.694;2023-05-14T10:31:56;19.80;99.90
8824;DHT22;4448;50.904;4.694;2023-05-14T10:34:35;19.70;99.90
8824;DHT22;4448;50.904;4.694;2023-05-14T10:37:16;19.70;99.90
8824;DHT22;4448;50.904;4.694;2023-05-14T10:40:02;19.70;99.90
8824;DHT22;4448;50.904;4.694;2023-05-14T10:42:38;19.80;99.90
8824;DHT22;4448;50.904;4.694;2023-05-14T10:45:09;19.90;99.90
8824;DHT22;4448;50.904;4.694;2023-05-14T10:47:38;20.00;99.90
8824;DHT22;4448;50.904;4.694;2023-05-14T10:50:07;20.10;99.90
8824;DHT22;4448;50.904;4.694;2023-05-14T10:52:33;20.30;99.90
8824;DHT22;4448;50.904;4.694;2023-05-14T10:55:06;20.40;99.90
8824;DHT22;4448;50.904;4.694;2023-05-14T10:57:37;20.50;99.90
8824;DHT22;4448;50.904;4.694;2023-05-14T11:00:05;20.60;99.90
8824;DHT22;4448;50.904;4.694;2023-05-14T11:02:39;20.70;99.90
8824;DHT22;4448;50.904;4.694;2023-05-14T11:05:15;20.80;99.90
8824;DHT22;4448;50.904;4.694;2023-05-14T11:07:48;20.80;99.90
8824;DHT22;4448;50.904;4.694;2023-05-14T11:10:19;20.90;99.90
8824;DHT22;4448;50.904;4.694;2023-05-14T11:12:47;21.00;99.90
8824;DHT22;4448;50.904;4.694;2023-05-14T11:15:15;21.00;99.90
8824;DHT22;4448;50.904;4.694;2023-05-14T11:17:42;21.10;99.90
8824;DHT22;4448;50.904;4.694;2023-05-14T11:20:09;21.20;99.90
8824;DHT22;4448;50.904;4.694;2023-05-14T11:22:36;21.30;99.90
8824;DHT22;4448;50.904;4.694;2023-05-14T11:25:02;21.40;99.90
8824;DHT22;4448;50.904;4.694;2023-05-14T11:27:28;21.50;99.90
8824;DHT22;4448;50.904;4.694;2023-05-14T11:29:55;21.60;99.90
8824;DHT22;4448;50.904;4.694;2023-05-14T11:32:22;21.70;99.90
8824;DHT22;4448;50.904;4.694;2023-05-14T11:34:48;21.80;99.90
8824;DHT22;4448;50.904;4.694;2023-05-14T11:37:14;21.90;99.90
8824;DHT22;4448;50.904;4.694;2023-05-14T11:39:58;21.90;99.90
8824;DHT22;4448;50.904;4.694;2023-05-14T11:42:24;22.00;99.90
8824;DHT22;4448;50.904;4.694;2023-05-14T11:44:51;22.10;99.90
8824;DHT22;4448;50.904;4.694;2023-05-14T11:47:19;22.20;99.90
8824;DHT22;4448;50.904;4.694;2023-05-14T11:49:46;22.20;99.90
8824;DHT22;4448;50.904;4.694;2023-05-14T11:52:13;22.30;99.90
8824;DHT22;4448;50.904;4.694;2023-05-14T11:54:41;22.30;99.90
8824;DHT22;4448;50.904;4.694;2023-05-14T11:57:18;22.40;99.90
8824;DHT22;4448;50.904;4.694;2023-05-14T11:59:44;22.50;99.90
8824;DHT22;4448;50.904;4.694;2023-05-14T12:02:12;22.60;99.90
8824;DHT22;4448;50.904;4.694;2023-05-14T12:04:39;22.80;99.90
8824;DHT22;4448;50.904;4.694;2023-05-14T12:07:13;22.80;99.90
8824;DHT22;4448;50.904;4.694;2023-05-14T12:09:41;23.00;99.90
8824;DHT22;4448;50.904;4.694;2023-05-14T12:12:09;23.00;99.90
8824;DHT22;4448;50.904;4.694;2023-05-14T12:14:40;23.20;99.90
8824;DHT22;4448;50.904;4.694;2023-05-14T12:17:22;23.30;99.90
8824;DHT22;4448;50.904;4.694;2023-05-14T12:19:52;23.40;99.90
8824;DHT22;4448;50.904;4.694;2023-05-14T12:22:20;23.50;99.90
8824;DHT22;4448;50.904;4.694;2023-05-14T12:24:56;23.60;99.90
8824;DHT22;4448;50.904;4.694;2023-05-14T12:27:26;23.70;99.90
8824;DHT22;4448;50.904;4.694;2023-05-14T12:32:25;23.90;99.90
8824;DHT22;4448;50.904;4.694;2023-05-14T12:34:50;24.00;99.90
8824;DHT22;4448;50.904;4.694;2023-05-14T12:37:16;24.10;99.90
8824;DHT22;4448;50.904;4.694;2023-05-14T12:39:43;24.10;99.90
8824;DHT22;4448;50.904;4.694;2023-05-14T12:42:08;24.20;99.90
8824;DHT22;4448;50.904;4.694;2023-05-14T12:44:34;24.20;99.90
8824;DHT22;4448;50.904;4.694;2023-05-14T12:47:00;24.20;99.90
8824;DHT22;4448;50.904;4.694;2023-05-14T12:49:26;24.20;99.90
8824;DHT22;4448;50.904;4.694;2023-05-14T12:51:52;24.20;99.90
8824;DHT22;4448;50.904;4.694;2023-05-14T12:54:17;24.30;99.90
8824;DHT22;4448;50.904;4.694;2023-05-14T12:56:43;24.30;99.90
8824;DHT22;4448;50.904;4.694;2023-05-14T12:59:09;24.30;99.90
8824;DHT22;4448;50.904;4.694;2023-05-14T13:01:35;24.30;99.90
8824;DHT22;4448;50.904;4.694;2023-05-14T13:04:02;24.30;99.90
8824;DHT22;4448;50.904;4.694;2023-05-14T13:06:27;24.20;99.90
8824;DHT22;4448;50.904;4.694;2023-05-14T13:08:53;24.20;99.90
8824;DHT22;4448;50.904;4.694;2023-05-14T13:11:19;24.20;99.90
8824;DHT22;4448;50.904;4.694;2023-05-14T13:13:45;24.10;99.90
8824;DHT22;4448;50.904;4.694;2023-05-14T13:16:11;24.00;99.90
8824;DHT22;4448;50.904;4.694;2023-05-14T13:18:41;24.00;99.90
8824;DHT22;4448;50.904;4.694;2023-05-14T13:21:06;24.00;99.90
8824;DHT22;4448;50.904;4.694;2023-05-14T13:23:32;24.00;99.90
8824;DHT22;4448;50.904;4.694;2023-05-14T13:25:58;24.00;99.90
8824;DHT22;4448;50.904;4.694;2023-05-14T13:28:24;24.00;99.90
8824;DHT22;4448;50.904;4.694;2023-05-14T13:31:03;24.00;99.90
8824;DHT22;4448;50.904;4.694;2023-05-14T13:33:30;24.00;99.90
8824;DHT22;4448;50.904;4.694;2023-05-14T13:35:55;24.00;99.90
8824;DHT22;4448;50.904;4.694;2023-05-14T13:38:21;24.00;99.90
8824;DHT22;4448;50.904;4.694;2023-05-14T13:40:47;24.00;99.90
8824;DHT22;4448;50.904;4.694;2023-05-14T13:43:12;24.00;99.90
8824;DHT22;4448;50.904;4.694;2023-05-14T13:45:41;24.00;99.90
8824;DHT22;4448;50.904;4.694;2023-05-14T13:48:06;24.00;99.90
8824;DHT22;4448;50.904;4.694;2023-05-14T13:50:32;23.90;99.90
8824;DHT22;4448;50.904;4.694;2023-05-14T13:52:58;23.90;99.90
8824;DHT22;4448;50.904;4.694;2023-05-14T13:55:23;23.90;99.90
8824;DHT22;4448;50.904;4.694;2023-05-14T13:57:49;23.80;99.90
8824;DHT22;4448;50.904;4.694;2023-05-14T14:00:15;23.80;99.90
8824;DHT22;4448;50.904;4.694;2023-05-14T14:02:40;23.70;99.90
8824;DHT22;4448;50.904;4.694;2023-05-14T14:05:06;23.70;99.90
8824;DHT22;4448;50.904;4.694;2023-05-14T14:07:32;23.70;99.90
8824;DHT22;4448;50.904;4.694;2023-05-14T14:09:58;23.60;99.90
8824;DHT22;4448;50.904;4.694;2023-05-14T14:12:26;23.60;99.90
8824;DHT22;4448;50.904;4.694;2023-05-14T14:14:51;23.60;99.90
8824;DHT22;4448;50.904;4.694;2023-05-14T14:17:17;23.60;99.90
8824;DHT22;4448;50.904;4.694;2023-05-14T14:19:43;23.60;99.90
8824;DHT22;4448;50.904;4.694;2023-05-14T14:22:08;23.50;99.90
8824;DHT22;4448;50.904;4.694;2023-05-14T14:24:34;23.40;99.90
8824;DHT22;4448;50.904;4.694;2023-05-14T14:27:00;23.40;99.90
8824;DHT22;4448;50.904;4.694;2023-05-14T14:29:26;23.40;99.90
8824;DHT22;4448;50.904;4.694;2023-05-14T14:31:55;23.30;99.90
8824;DHT22;4448;50.904;4.694;2023-05-14T14:34:21;23.20;99.90
8824;DHT22;4448;50.904;4.694;2023-05-14T14:36:46;23.20;99.90
8824;DHT22;4448;50.904;4.694;2023-05-14T14:39:12;23.10;99.90
8824;DHT22;4448;50.904;4.694;2023-05-14T14:41:38;23.10;99.90
8824;DHT22;4448;50.904;4.694;2023-05-14T14:44:03;23.00;99.90
8824;DHT22;4448;50.904;4.694;2023-05-14T14:46:30;23.00;99.90
8824;DHT22;4448;50.904;4.694;2023-05-14T14:48:56;22.90;99.90
8824;DHT22;4448;50.904;4.694;2023-05-14T14:51:21;22.90;99.90
8824;DHT22;4448;50.904;4.694;2023-05-14T14:53:47;22.80;99.90
8824;DHT22;4448;50.904;4.694;2023-05-14T14:56:13;22.80;99.90
8824;DHT22;4448;50.904;4.694;2023-05-14T14:58:38;22.80;99.90
8824;DHT22;4448;50.904;4.694;2023-05-14T15:01:04;22.70;99.90
8824;DHT22;4448;50.904;4.694;2023-05-14T15:03:30;22.70;99.90
8824;DHT22;4448;50.904;4.694;2023-05-14T15:05:55;22.60;99.90
8824;DHT22;4448;50.904;4.694;2023-05-14T15:08:26;22.60;99.90
8824;DHT22;4448;50.904;4.694;2023-05-14T15:10:53;22.50;99.90
8824;DHT22;4448;50.904;4.694;2023-05-14T15:13:18;22.50;99.90
8824;DHT22;4448;50.904;4.694;2023-05-14T15:15:45;22.40;99.90
8824;DHT22;4448;50.904;4.694;2023-05-14T15:18:10;22.30;99.90
8824;DHT22;4448;50.904;4.694;2023-05-14T15:20:36;22.30;99.90
8824;DHT22;4448;50.904;4.694;2023-05-14T15:23:02;22.30;99.90
8824;DHT22;4448;50.904;4.694;2023-05-14T15:25:27;22.20;99.90
8824;DHT22;4448;50.904;4.694;2023-05-14T15:27:53;22.10;99.90
8824;DHT22;4448;50.904;4.694;2023-05-14T15:30:19;22.10;99.90
8824;DHT22;4448;50.904;4.694;2023-05-14T15:32:45;22.00;99.90
8824;DHT22;4448;50.904;4.694;2023-05-14T15:35:11;22.00;99.90
8824;DHT22;4448;50.904;4.694;2023-05-14T15:37:42;21.90;99.90
8824;DHT22;4448;50.904;4.694;2023-05-14T15:40:08;21.90;99.90
8824;DHT22;4448;50.904;4.694;2023-05-14T15:42:35;21.80;99.90
8824;DHT22;4448;50.904;4.694;2023-05-14T15:45:01;21.80;99.90
8824;DHT22;4448;50.904;4.694;2023-05-14T15:47:27;21.70;99.90
8824;DHT22;4448;50.904;4.694;2023-05-14T15:49:53;21.60;99.90
8824;DHT22;4448;50.904;4.694;2023-05-14T15:52:19;21.60;99.90
8824;DHT22;4448;50.904;4.694;2023-05-14T15:54:45;21.50;99.90
8824;DHT22;4448;50.904;4.694;2023-05-14T15:57:11;21.50;99.90
8824;DHT22;4448;50.904;4.694;2023-05-14T15:59:37;21.50;99.90
8824;DHT22;4448;50.904;4.694;2023-05-14T16:02:02;21.40;99.90
8824;DHT22;4448;50.904;4.694;2023-05-14T16:04:28;21.30;99.90
8824;DHT22;4448;50.904;4.694;2023-05-14T16:06:59;21.30;99.90
8824;DHT22;4448;50.904;4.694;2023-05-14T16:09:25;21.20;99.90
8824;DHT22;4448;50.904;4.694;2023-05-14T16:11:51;21.20;99.90